createdAt,value
2018-10-19T00:01:59.002Z,8.90
2018-10-19T00:04:28.107Z,8.90
2018-10-19T00:06:57.269Z,8.90
2018-10-19T00:09:26.432Z,8.90
2018-10-19T00:11:55.671Z,8.80
2018-10-19T00:14:24.852Z,8.80
2018-10-19T00:16:54.034Z,8.80
2018-10-19T00:19:23.128Z,8.80
2018-10-19T00:21:52.293Z,8.80
2018-10-19T00:24:21.568Z,8.80
2018-10-19T00:26:50.673Z,8.80
2018-10-19T00:29:19.832Z,8.80
2018-10-19T00:31:48.911Z,8.80
2018-10-19T00:34:18.068Z,8.80
2018-10-19T00:36:47.332Z,8.70
2018-10-19T00:39:16.435Z,8.70
2018-10-19T00:41:45.694Z,8.70
2018-10-19T00:44:14.823Z,8.70
2018-10-19T00:46:44.013Z,8.70
2018-10-19T00:49:13.159Z,8.70
2018-10-19T00:51:42.333Z,8.70
2018-10-19T00:54:11.393Z,8.70
2018-10-19T00:56:40.548Z,8.70
2018-10-19T00:59:09.793Z,8.70
2018-10-19T01:01:38.787Z,8.70
2018-10-19T01:04:07.989Z,8.70
2018-10-19T01:06:37.212Z,8.70
2018-10-19T01:09:08.647Z,8.60
2018-10-19T01:11:37.684Z,8.60
2018-10-19T01:14:06.999Z,8.60
2018-10-19T01:16:36.125Z,8.60
2018-10-19T01:19:05.472Z,8.60
2018-10-19T01:21:34.756Z,8.60
2018-10-19T01:24:03.999Z,8.60
2018-10-19T01:26:33.223Z,8.60
2018-10-19T01:29:02.481Z,8.60
2018-10-19T01:31:31.561Z,8.50
2018-10-19T01:34:00.632Z,8.50
2018-10-19T01:36:34.894Z,8.50
2018-10-19T01:39:04.804Z,8.50
2018-10-19T01:41:33.912Z,8.50
2018-10-19T01:44:03.092Z,8.50
2018-10-19T01:46:32.256Z,8.40
2018-10-19T01:49:01.397Z,8.40
2018-10-19T01:51:31.252Z,8.40
2018-10-19T01:54:00.461Z,8.40
2018-10-19T01:56:29.513Z,8.40
2018-10-19T01:58:58.738Z,8.40
2018-10-19T02:01:27.927Z,8.40
2018-10-19T02:03:57.033Z,8.30
2018-10-19T02:06:26.184Z,8.30
2018-10-19T02:08:55.386Z,8.30
2018-10-19T02:11:24.537Z,8.30
2018-10-19T02:13:53.777Z,8.30
2018-10-19T02:16:22.934Z,8.30
2018-10-19T02:18:52.027Z,8.30
2018-10-19T02:21:21.124Z,8.30
2018-10-19T02:23:50.292Z,8.40
2018-10-19T02:26:19.424Z,8.40
2018-10-19T02:28:49.434Z,8.40
2018-10-19T02:31:18.539Z,8.40
2018-10-19T02:33:47.792Z,8.40
2018-10-19T02:36:16.852Z,8.50
2018-10-19T02:38:45.940Z,8.50
2018-10-19T02:41:15.247Z,8.50
2018-10-19T02:43:44.201Z,8.50
2018-10-19T02:46:13.251Z,8.50
2018-10-19T02:48:42.421Z,8.50
2018-10-19T02:51:11.635Z,8.50
2018-10-19T02:53:40.696Z,8.50
2018-10-19T02:56:09.793Z,8.50
2018-10-19T02:58:38.952Z,8.50
2018-10-19T03:01:08.130Z,8.50
2018-10-19T03:03:37.257Z,8.50
2018-10-19T03:06:13.312Z,8.50
2018-10-19T03:08:42.472Z,8.50
2018-10-19T03:11:11.725Z,8.60
2018-10-19T03:13:40.873Z,8.60
2018-10-19T03:16:09.986Z,8.60
2018-10-19T03:18:39.195Z,8.60
2018-10-19T03:21:08.328Z,8.60
2018-10-19T03:23:37.514Z,8.60
2018-10-19T03:26:07.999Z,8.60
2018-10-19T03:28:37.217Z,8.50
2018-10-19T03:31:06.812Z,8.50
2018-10-19T03:33:35.824Z,8.50
2018-10-19T03:36:05.127Z,8.50
2018-10-19T03:38:34.253Z,8.50
2018-10-19T03:41:03.516Z,8.50
2018-10-19T03:43:32.622Z,8.50
2018-10-19T03:46:01.794Z,8.50
2018-10-19T03:48:31.031Z,8.50
2018-10-19T03:51:00.214Z,8.50
2018-10-19T03:53:29.412Z,8.50
2018-10-19T03:55:58.619Z,8.50
2018-10-19T03:58:27.822Z,8.50
2018-10-19T04:00:57.038Z,8.40
2018-10-19T04:03:26.188Z,8.40
2018-10-19T04:05:55.408Z,8.40
2018-10-19T04:08:24.583Z,8.40
2018-10-19T04:10:53.732Z,8.40
2018-10-19T04:13:22.881Z,8.40
2018-10-19T04:15:52.088Z,8.40
2018-10-19T04:18:21.226Z,8.40
2018-10-19T04:20:50.418Z,8.40
2018-10-19T04:23:19.549Z,8.40
2018-10-19T04:25:48.780Z,8.40
2018-10-19T04:28:18.040Z,8.40
2018-10-19T04:30:47.120Z,8.30
2018-10-19T04:33:19.448Z,8.30
2018-10-19T04:35:48.412Z,8.40
2018-10-19T04:38:17.549Z,8.30
2018-10-19T04:40:46.711Z,8.30
2018-10-19T04:43:15.850Z,8.30
2018-10-19T04:45:45.046Z,8.30
2018-10-19T04:48:14.197Z,8.30
2018-10-19T04:50:43.433Z,8.30
2018-10-19T04:53:12.593Z,8.30
2018-10-19T04:55:41.712Z,8.20
2018-10-19T04:58:10.888Z,8.20
2018-10-19T05:00:39.987Z,8.20
2018-10-19T05:03:09.257Z,8.20
2018-10-19T05:05:38.423Z,8.20
2018-10-19T05:08:07.703Z,8.20
2018-10-19T05:10:36.839Z,8.20
2018-10-19T05:13:06.289Z,8.20
2018-10-19T05:15:35.427Z,8.30
2018-10-19T05:18:04.572Z,8.30
2018-10-19T05:20:33.747Z,8.30
2018-10-19T05:23:02.934Z,8.30
2018-10-19T05:25:37.387Z,8.30
2018-10-19T05:28:06.684Z,8.30
2018-10-19T05:30:35.801Z,8.30
2018-10-19T05:33:05.025Z,8.30
2018-10-19T05:35:34.188Z,8.30
2018-10-19T05:38:03.374Z,8.30
2018-10-19T05:40:32.595Z,8.40
2018-10-19T05:43:01.773Z,8.40
2018-10-19T05:45:30.906Z,8.40
2018-10-19T05:48:00.088Z,8.40
2018-10-19T05:50:29.274Z,8.40
2018-10-19T05:52:58.455Z,8.40
2018-10-19T05:55:27.811Z,8.40
2018-10-19T05:57:56.908Z,8.40
2018-10-19T06:00:26.205Z,8.40
2018-10-19T06:02:55.372Z,8.50
2018-10-19T06:05:24.567Z,8.50
2018-10-19T06:07:53.971Z,8.50
2018-10-19T06:10:23.155Z,8.50
2018-10-19T06:12:52.259Z,8.60
2018-10-19T06:15:21.451Z,8.60
2018-10-19T06:17:50.608Z,8.60
2018-10-19T06:20:19.848Z,8.60
2018-10-19T06:22:49.118Z,8.60
2018-10-19T06:25:18.374Z,8.60
2018-10-19T06:27:47.546Z,8.70
2018-10-19T06:30:16.799Z,8.70
2018-10-19T06:32:45.876Z,8.70
2018-10-19T06:35:15.075Z,8.80
2018-10-19T06:37:44.190Z,8.80
2018-10-19T06:40:13.365Z,8.90
2018-10-19T06:42:42.450Z,8.90
2018-10-19T06:45:11.664Z,8.90
2018-10-19T06:47:40.805Z,9.00
2018-10-19T06:50:11.649Z,9.00
2018-10-19T06:52:41.188Z,9.10
2018-10-19T06:55:12.607Z,9.10
2018-10-19T06:57:41.773Z,9.20
2018-10-19T07:00:11.127Z,9.30
2018-10-19T07:02:40.284Z,9.30
2018-10-19T07:05:09.487Z,9.40
2018-10-19T07:07:38.821Z,9.50
2018-10-19T07:10:09.379Z,9.60
2018-10-19T07:12:38.787Z,9.60
2018-10-19T07:15:08.852Z,9.70
2018-10-19T07:17:38.299Z,9.80
2018-10-19T07:20:09.057Z,9.80
2018-10-19T07:22:38.252Z,9.90
2018-10-19T07:25:07.795Z,10.00
2018-10-19T07:27:36.986Z,10.20
2018-10-19T07:30:06.574Z,10.20
2018-10-19T07:32:35.669Z,10.30
2018-10-19T07:35:05.214Z,10.40
2018-10-19T07:37:34.412Z,10.50
2018-10-19T07:40:03.559Z,10.60
2018-10-19T07:42:32.701Z,10.80
2018-10-19T07:45:01.819Z,10.90
2018-10-19T07:47:31.064Z,11.10
2018-10-19T07:50:00.211Z,11.30
2018-10-19T07:52:29.309Z,11.40
2018-10-19T07:54:58.445Z,11.60
2018-10-19T07:57:27.640Z,11.80
2018-10-19T07:59:56.776Z,12.00
2018-10-19T08:02:25.920Z,12.10
2018-10-19T08:04:55.159Z,12.40
2018-10-19T08:07:24.295Z,12.50
2018-10-19T08:09:53.372Z,12.70
2018-10-19T08:12:22.484Z,12.80
2018-10-19T08:14:51.596Z,13.00
2018-10-19T08:17:20.749Z,13.20
2018-10-19T08:19:49.892Z,13.30
2018-10-19T08:22:18.960Z,13.40
2018-10-19T08:24:48.288Z,13.50
2018-10-19T08:27:17.438Z,13.60
2018-10-19T08:29:46.673Z,13.70
2018-10-19T08:32:15.973Z,13.90
2018-10-19T08:34:45.112Z,14.00
2018-10-19T08:37:14.350Z,14.20
2018-10-19T08:39:43.564Z,14.30
2018-10-19T08:42:12.728Z,14.40
2018-10-19T08:44:42.008Z,14.50
2018-10-19T08:47:11.119Z,14.60
2018-10-19T08:49:40.244Z,14.80
2018-10-19T08:52:09.417Z,14.90
2018-10-19T08:54:38.644Z,15.00
2018-10-19T08:57:07.944Z,15.20
2018-10-19T08:59:37.104Z,15.30
2018-10-19T09:02:06.358Z,15.40
2018-10-19T09:04:35.526Z,15.60
2018-10-19T09:07:04.669Z,15.70
2018-10-19T09:09:33.824Z,15.80
2018-10-19T09:12:02.913Z,15.80
2018-10-19T09:14:54.503Z,16.00
2018-10-19T09:17:23.592Z,16.10
2018-10-19T09:19:53.045Z,16.20
2018-10-19T09:22:22.159Z,16.20
2018-10-19T09:24:51.590Z,16.30
2018-10-19T09:27:21.009Z,16.40
2018-10-19T09:29:50.132Z,16.40
2018-10-19T09:32:19.230Z,16.50
2018-10-19T09:34:48.412Z,16.60
2018-10-19T09:37:17.596Z,16.80
2018-10-19T09:39:46.632Z,16.90
2018-10-19T09:42:15.733Z,17.00
2018-10-19T09:44:44.860Z,17.00
2018-10-19T09:47:14.002Z,17.10
2018-10-19T09:49:43.229Z,17.20
2018-10-19T09:52:12.275Z,17.40
2018-10-19T09:54:41.413Z,17.50
2018-10-19T09:57:10.555Z,17.70
2018-10-19T09:59:39.722Z,17.70
2018-10-19T10:02:09.025Z,17.80
2018-10-19T10:04:38.060Z,17.90
2018-10-19T10:07:07.286Z,18.00
2018-10-19T10:09:36.332Z,18.00
2018-10-19T10:12:05.458Z,17.90
2018-10-19T10:14:34.538Z,18.00
2018-10-19T10:17:03.782Z,18.00
2018-10-19T10:19:33.045Z,18.00
2018-10-19T10:22:02.389Z,18.00
2018-10-19T10:24:31.631Z,18.10
2018-10-19T10:27:00.812Z,18.20
2018-10-19T10:29:30.130Z,18.20
2018-10-19T10:31:59.378Z,18.30
2018-10-19T10:34:28.612Z,18.20
2018-10-19T10:36:57.839Z,18.20
2018-10-19T10:39:27.105Z,18.30
2018-10-19T10:41:56.353Z,18.50
2018-10-19T10:44:25.416Z,18.50
2018-10-19T10:46:54.721Z,18.50
2018-10-19T10:49:23.803Z,18.50
2018-10-19T10:51:57.236Z,18.50
2018-10-19T10:54:26.325Z,18.60
2018-10-19T10:56:55.571Z,18.60
2018-10-19T10:59:24.693Z,18.80
2018-10-19T11:01:53.756Z,18.70
2018-10-19T11:04:22.844Z,18.60
2018-10-19T11:06:51.992Z,18.60
2018-10-19T11:09:21.211Z,18.60
2018-10-19T11:11:50.410Z,18.80
2018-10-19T11:14:19.513Z,18.90
2018-10-19T11:16:48.720Z,19.10
2018-10-19T11:19:17.947Z,19.10
2018-10-19T11:21:47.418Z,19.10
2018-10-19T11:24:16.792Z,19.20
2018-10-19T11:26:45.847Z,19.30
2018-10-19T11:29:15.110Z,19.20
2018-10-19T11:31:44.272Z,19.30
2018-10-19T11:34:13.489Z,19.20
2018-10-19T11:36:42.799Z,19.30
2018-10-19T11:39:11.961Z,19.30
2018-10-19T11:41:41.456Z,19.30
2018-10-19T11:44:10.770Z,19.20
2018-10-19T11:46:39.831Z,19.40
2018-10-19T11:49:09.161Z,19.50
2018-10-19T11:51:38.407Z,19.70
2018-10-19T11:54:07.612Z,19.80
2018-10-19T11:56:36.819Z,19.80
2018-10-19T11:59:06.336Z,19.70
2018-10-19T12:01:35.468Z,19.60
2018-10-19T12:04:04.738Z,19.70
2018-10-19T12:06:34.029Z,19.80
2018-10-19T12:09:03.299Z,20.00
2018-10-19T12:11:32.573Z,20.10
2018-10-19T12:14:01.745Z,20.30
2018-10-19T12:16:30.920Z,20.20
2018-10-19T12:19:00.042Z,20.00
2018-10-19T12:21:29.396Z,20.10
2018-10-19T12:23:58.707Z,20.20
2018-10-19T12:26:27.914Z,20.40
2018-10-19T12:28:57.127Z,20.60
2018-10-19T12:31:26.324Z,20.90
2018-10-19T12:33:55.487Z,21.30
2018-10-19T12:36:24.671Z,21.30
2018-10-19T12:38:53.863Z,21.40
2018-10-19T12:41:23.082Z,21.40
2018-10-19T12:43:52.225Z,21.40
2018-10-19T12:46:36.857Z,21.40
2018-10-19T12:49:06.248Z,21.50
2018-10-19T12:51:35.699Z,21.50
2018-10-19T12:54:05.194Z,21.50
2018-10-19T12:56:34.380Z,21.80
2018-10-19T12:59:03.583Z,22.00
2018-10-19T13:01:33.263Z,22.30
2018-10-19T13:04:03.230Z,22.50
2018-10-19T13:06:32.566Z,22.90
2018-10-19T13:09:01.765Z,23.10
2018-10-19T13:11:30.859Z,23.30
2018-10-19T13:14:00.146Z,23.50
2018-10-19T13:16:29.354Z,23.50
2018-10-19T13:18:58.468Z,23.60
2018-10-19T13:21:27.647Z,23.70
2018-10-19T13:23:56.984Z,23.70
2018-10-19T13:26:26.313Z,23.70
2018-10-19T13:28:55.682Z,23.80
2018-10-19T13:31:24.825Z,23.80
2018-10-19T13:33:54.067Z,23.90
2018-10-19T13:36:23.131Z,23.70
2018-10-19T13:38:52.365Z,23.30
2018-10-19T13:41:21.721Z,22.60
2018-10-19T13:43:50.886Z,21.90
2018-10-19T13:46:20.105Z,21.10
2018-10-19T13:48:49.209Z,20.50
2018-10-19T13:51:18.416Z,20.10
2018-10-19T13:53:47.606Z,19.60
2018-10-19T13:56:16.846Z,19.40
2018-10-19T13:58:47.273Z,19.10
2018-10-19T14:01:16.385Z,19.00
2018-10-19T14:03:45.601Z,18.90
2018-10-19T14:06:14.759Z,18.80
2018-10-19T14:08:43.960Z,18.70
2018-10-19T14:11:13.112Z,18.70
2018-10-19T14:13:42.415Z,18.70
2018-10-19T14:16:11.655Z,18.50
2018-10-19T14:18:40.851Z,18.50
2018-10-19T14:21:10.153Z,18.40
2018-10-19T14:23:39.345Z,18.30
2018-10-19T14:26:08.527Z,18.20
2018-10-19T14:28:37.594Z,18.20
2018-10-19T14:31:06.788Z,18.10
2018-10-19T14:33:36.198Z,18.10
2018-10-19T14:36:05.556Z,18.00
2018-10-19T14:38:34.701Z,17.90
2018-10-19T14:41:04.011Z,17.80
2018-10-19T14:43:33.147Z,17.70
2018-10-19T14:46:02.325Z,17.60
2018-10-19T14:48:31.477Z,17.60
2018-10-19T14:51:00.637Z,17.50
2018-10-19T14:53:29.868Z,17.40
2018-10-19T14:55:58.984Z,17.30
2018-10-19T14:58:28.127Z,17.20
2018-10-19T15:00:57.241Z,17.10
2018-10-19T15:03:26.292Z,17.00
2018-10-19T15:05:55.528Z,16.90
2018-10-19T15:08:24.697Z,16.70
2018-10-19T15:10:53.928Z,16.60
2018-10-19T15:13:22.957Z,16.50
2018-10-19T15:15:52.217Z,16.40
2018-10-19T15:18:21.319Z,16.30
2018-10-19T15:20:50.465Z,16.10
2018-10-19T15:23:19.546Z,16.00
2018-10-19T15:25:48.692Z,15.80
2018-10-19T15:28:17.804Z,15.70
2018-10-19T15:30:46.940Z,15.60
2018-10-19T15:33:16.231Z,15.40
2018-10-19T15:35:45.262Z,15.30
2018-10-19T15:38:14.447Z,15.10
2018-10-19T15:40:43.619Z,14.90
2018-10-19T15:43:12.732Z,14.70
2018-10-19T15:45:41.854Z,14.60
2018-10-19T15:48:11.180Z,14.40
2018-10-19T15:50:40.333Z,14.30
2018-10-19T15:53:09.510Z,14.10
2018-10-19T15:55:38.684Z,14.00
2018-10-19T15:58:07.877Z,13.90
2018-10-19T16:00:37.220Z,13.70
2018-10-19T16:03:06.534Z,13.60
2018-10-19T16:05:35.744Z,13.50
2018-10-19T16:08:04.948Z,13.40
2018-10-19T16:10:34.053Z,13.20
2018-10-19T16:13:03.345Z,13.20
2018-10-19T16:15:32.615Z,13.00
2018-10-19T16:18:11.637Z,12.90
2018-10-19T16:20:40.794Z,12.80
2018-10-19T16:23:09.853Z,12.70
2018-10-19T16:25:39.021Z,12.70
2018-10-19T16:28:08.328Z,12.60
2018-10-19T16:30:37.539Z,12.50
2018-10-19T16:33:06.824Z,12.40
2018-10-19T16:35:35.924Z,12.30
2018-10-19T16:38:05.606Z,12.20
2018-10-19T16:40:34.844Z,12.20
2018-10-19T16:43:04.184Z,12.10
2018-10-19T16:45:33.392Z,12.00
2018-10-19T16:48:02.583Z,11.90
2018-10-19T16:50:31.788Z,11.90
2018-10-19T16:53:01.300Z,11.80
2018-10-19T16:55:30.493Z,11.80
2018-10-19T16:57:59.702Z,11.70
2018-10-19T17:00:28.829Z,11.70
2018-10-19T17:02:58.009Z,11.60
2018-10-19T17:05:27.128Z,11.60
2018-10-19T17:07:56.450Z,11.50
2018-10-19T17:10:25.548Z,11.40
2018-10-19T17:12:54.814Z,11.40
2018-10-19T17:15:24.057Z,11.30
2018-10-19T17:17:53.301Z,11.30
2018-10-19T17:20:22.512Z,11.20
2018-10-19T17:22:51.662Z,11.20
2018-10-19T17:25:20.924Z,11.20
2018-10-19T17:27:50.185Z,11.10
2018-10-19T17:30:19.529Z,11.10
2018-10-19T17:32:48.614Z,11.10
2018-10-19T17:35:17.830Z,11.10
2018-10-19T17:37:47.108Z,11.10
2018-10-19T17:40:16.234Z,11.10
2018-10-19T17:42:45.495Z,11.00
2018-10-19T17:45:14.871Z,11.00
2018-10-19T17:47:44.107Z,10.90
2018-10-19T17:50:13.323Z,10.90
2018-10-19T17:52:42.497Z,10.80
2018-10-19T17:55:12.464Z,10.80
2018-10-19T17:57:41.594Z,10.80
2018-10-19T18:00:12.751Z,10.80
2018-10-19T18:02:41.907Z,10.70
2018-10-19T18:05:11.150Z,10.70
2018-10-19T18:07:40.353Z,10.70
2018-10-19T18:10:09.601Z,10.70
2018-10-19T18:12:38.814Z,10.70
2018-10-19T18:15:08.493Z,10.70
2018-10-19T18:17:38.277Z,10.60
2018-10-19T18:20:07.620Z,10.60
2018-10-19T18:22:37.137Z,10.60
2018-10-19T18:25:07.413Z,10.60
2018-10-19T18:27:36.609Z,10.60
2018-10-19T18:30:06.521Z,10.60
2018-10-19T18:32:36.005Z,10.50
2018-10-19T18:35:05.823Z,10.50
2018-10-19T18:37:34.990Z,10.50
2018-10-19T18:40:04.163Z,10.50
2018-10-19T18:42:33.264Z,10.50
2018-10-19T18:45:02.464Z,10.50
2018-10-19T18:47:31.705Z,10.40
2018-10-19T18:50:00.846Z,10.50
2018-10-19T18:52:30.028Z,10.50
2018-10-19T18:54:59.278Z,10.50
2018-10-19T18:57:28.379Z,10.50
2018-10-19T18:59:57.551Z,10.50
2018-10-19T19:02:26.728Z,10.50
2018-10-19T19:04:56.398Z,10.40
2018-10-19T19:07:25.593Z,10.40
2018-10-19T19:09:59.852Z,10.40
2018-10-19T19:12:29.092Z,10.40
2018-10-19T19:14:58.240Z,10.30
2018-10-19T19:17:27.390Z,10.40
2018-10-19T19:20:01.800Z,10.30
2018-10-19T19:22:31.049Z,10.30
2018-10-19T19:25:05.487Z,10.30
2018-10-19T19:27:34.620Z,10.30
2018-10-19T19:30:03.972Z,10.30
2018-10-19T19:32:33.207Z,10.30
2018-10-19T19:35:02.401Z,10.20
2018-10-19T19:37:31.675Z,10.20
2018-10-19T19:40:00.862Z,10.20
2018-10-19T19:42:35.328Z,10.10
2018-10-19T19:45:04.490Z,10.10
2018-10-19T19:47:38.949Z,10.10
2018-10-19T19:50:08.381Z,10.10
2018-10-19T19:52:37.544Z,10.10
2018-10-19T19:55:07.233Z,10.10
2018-10-19T19:57:36.465Z,10.10
2018-10-19T20:00:06.089Z,10.00
2018-10-19T20:02:35.214Z,10.00
2018-10-19T20:05:04.982Z,10.00
2018-10-19T20:07:34.187Z,10.00
2018-10-19T20:10:03.483Z,10.00
2018-10-19T20:12:38.268Z,10.00
2018-10-19T20:15:08.600Z,10.00
2018-10-19T20:17:37.707Z,10.00
2018-10-19T20:20:08.432Z,10.00
2018-10-19T20:22:37.671Z,10.00
2018-10-19T20:25:07.931Z,10.00
2018-10-19T20:27:37.742Z,10.00
2018-10-19T20:30:09.096Z,10.00
2018-10-19T20:32:38.865Z,10.00
2018-10-19T20:35:08.230Z,10.00
2018-10-19T20:37:37.506Z,9.90
2018-10-19T20:40:06.729Z,9.90
2018-10-19T20:42:36.005Z,9.90
2018-10-19T20:45:05.390Z,9.90
2018-10-19T20:47:34.525Z,9.90
2018-10-19T20:50:03.691Z,9.80
2018-10-19T20:52:32.812Z,9.80
2018-10-19T20:55:01.953Z,9.80
2018-10-19T20:57:31.042Z,9.70
2018-10-19T21:00:00.093Z,9.70
2018-10-19T21:02:29.313Z,9.70
2018-10-19T21:04:58.335Z,9.70
2018-10-19T21:07:27.523Z,9.70
2018-10-19T21:09:56.618Z,9.70
2018-10-19T21:12:25.804Z,9.60
2018-10-19T21:14:54.936Z,9.60
2018-10-19T21:17:24.239Z,9.60
2018-10-19T21:19:53.394Z,9.50
2018-10-19T21:22:22.597Z,9.50
2018-10-19T21:24:51.702Z,9.50
2018-10-19T21:27:20.849Z,9.40
2018-10-19T21:29:50.136Z,9.40
2018-10-19T21:32:19.575Z,9.30
2018-10-19T21:34:48.772Z,9.30
2018-10-19T21:37:17.871Z,9.20
2018-10-19T21:39:47.486Z,9.20
2018-10-19T21:42:16.637Z,9.20
2018-10-19T21:44:45.769Z,9.20
2018-10-19T21:47:24.470Z,9.20
2018-10-19T21:49:53.637Z,9.20
2018-10-19T21:52:22.991Z,9.20
2018-10-19T21:54:52.193Z,9.20
2018-10-19T21:57:21.339Z,9.20
2018-10-19T21:59:50.515Z,9.20
2018-10-19T22:02:19.598Z,9.10
2018-10-19T22:04:48.604Z,9.00
2018-10-19T22:07:17.727Z,9.00
2018-10-19T22:09:46.833Z,9.00
2018-10-19T22:12:15.964Z,9.00
2018-10-19T22:14:45.144Z,8.90
2018-10-19T22:17:14.317Z,8.90
2018-10-19T22:19:43.552Z,8.90
2018-10-19T22:22:12.641Z,8.90
2018-10-19T22:24:41.802Z,8.90
2018-10-19T22:27:10.897Z,8.90
2018-10-19T22:29:39.938Z,8.80
2018-10-19T22:32:09.092Z,8.80
2018-10-19T22:34:38.267Z,8.80
2018-10-19T22:37:07.491Z,8.80
2018-10-19T22:39:36.551Z,8.80
2018-10-19T22:42:05.816Z,8.80
2018-10-19T22:44:35.466Z,8.80
2018-10-19T22:47:04.615Z,8.80
2018-10-19T22:49:33.627Z,8.70
2018-10-19T22:52:02.902Z,8.60
2018-10-19T22:54:31.992Z,8.60
2018-10-19T22:57:01.124Z,8.60
2018-10-19T22:59:30.213Z,8.60
2018-10-19T23:01:59.453Z,8.60
2018-10-19T23:04:28.623Z,8.70
2018-10-19T23:06:57.721Z,8.70
2018-10-19T23:09:26.871Z,8.80
2018-10-19T23:11:56.016Z,8.90
2018-10-19T23:14:25.087Z,8.90
2018-10-19T23:16:54.257Z,8.90
2018-10-19T23:19:23.326Z,9.00
2018-10-19T23:21:52.503Z,9.00
2018-10-19T23:24:21.703Z,9.00
2018-10-19T23:26:50.887Z,9.10
2018-10-19T23:29:20.047Z,9.10
2018-10-19T23:31:49.128Z,9.10
2018-10-19T23:34:18.344Z,9.10
2018-10-19T23:36:47.483Z,9.10
2018-10-19T23:39:16.552Z,9.00
2018-10-19T23:41:45.723Z,9.10
2018-10-19T23:44:14.844Z,9.00
2018-10-19T23:46:44.072Z,9.00
2018-10-19T23:49:13.375Z,9.00
2018-10-19T23:51:42.567Z,9.00
2018-10-19T23:54:11.785Z,8.90
2018-10-19T23:56:41.144Z,8.90
2018-10-19T23:59:10.246Z,8.90
